sensor_id;sensor_type;location;lat;lon;timestamp;temperature;humidity
19930;DHT22;10127;47.780;9.606;2022-11-25T00:02:15;4.00;99.90
19930;DHT22;10127;47.780;9.606;2022-11-25T00:04:41;3.90;99.90
19930;DHT22;10127;47.780;9.606;2022-11-25T00:07:06;4.00;99.90
19930;DHT22;10127;47.780;9.606;2022-11-25T00:09:32;4.00;99.90
19930;DHT22;10127;47.780;9.606;2022-11-25T00:11:58;4.00;99.90
19930;DHT22;10127;47.780;9.606;2022-11-25T00:14:23;4.00;99.90
19930;DHT22;10127;47.780;9.606;2022-11-25T00:16:49;4.00;99.90
19930;DHT22;10127;47.780;9.606;2022-11-25T00:19:15;4.00;99.90
19930;DHT22;10127;47.780;9.606;2022-11-25T00:21:41;4.00;99.90
19930;DHT22;10127;47.780;9.606;2022-11-25T00:24:07;4.00;99.90
19930;DHT22;10127;47.780;9.606;2022-11-25T00:26:34;4.00;99.90
19930;DHT22;10127;47.780;9.606;2022-11-25T00:29:03;4.00;99.90
19930;DHT22;10127;47.780;9.606;2022-11-25T00:31:32;3.90;99.90
19930;DHT22;10127;47.780;9.606;2022-11-25T00:33:58;3.90;99.90
19930;DHT22;10127;47.780;9.606;2022-11-25T00:36:25;3.80;99.90
19930;DHT22;10127;47.780;9.606;2022-11-25T00:38:55;3.90;99.90
19930;DHT22;10127;47.780;9.606;2022-11-25T00:41:21;3.90;99.90
19930;DHT22;10127;47.780;9.606;2022-11-25T00:44:11;3.80;99.90
19930;DHT22;10127;47.780;9.606;2022-11-25T00:46:56;3.80;99.90
19930;DHT22;10127;47.780;9.606;2022-11-25T00:49:22;3.90;99.90
19930;DHT22;10127;47.780;9.606;2022-11-25T00:51:48;3.90;99.90
19930;DHT22;10127;47.780;9.606;2022-11-25T00:54:13;3.90;99.90
19930;DHT22;10127;47.780;9.606;2022-11-25T00:56:39;3.90;99.90
19930;DHT22;10127;47.780;9.606;2022-11-25T00:59:05;3.90;99.90
19930;DHT22;10127;47.780;9.606;2022-11-25T01:01:31;3.90;99.90
19930;DHT22;10127;47.780;9.606;2022-11-25T01:03:57;3.90;99.90
19930;DHT22;10127;47.780;9.606;2022-11-25T01:06:22;3.90;99.90
19930;DHT22;10127;47.780;9.606;2022-11-25T01:08:48;3.80;99.90
19930;DHT22;10127;47.780;9.606;2022-11-25T01:11:16;3.80;99.90
19930;DHT22;10127;47.780;9.606;2022-11-25T01:13:42;3.80;99.90
19930;DHT22;10127;47.780;9.606;2022-11-25T01:16:10;3.80;99.90
19930;DHT22;10127;47.780;9.606;2022-11-25T01:18:36;3.70;99.90
19930;DHT22;10127;47.780;9.606;2022-11-25T01:21:30;3.90;99.90
19930;DHT22;10127;47.780;9.606;2022-11-25T01:23:57;4.00;99.90
19930;DHT22;10127;47.780;9.606;2022-11-25T01:26:24;4.10;99.90
19930;DHT22;10127;47.780;9.606;2022-11-25T01:28:55;4.20;99.90
19930;DHT22;10127;47.780;9.606;2022-11-25T01:31:23;4.20;99.90
19930;DHT22;10127;47.780;9.606;2022-11-25T01:33:55;4.20;99.90
19930;DHT22;10127;47.780;9.606;2022-11-25T01:36:21;4.10;99.90
19930;DHT22;10127;47.780;9.606;2022-11-25T01:38:50;4.00;99.90
19930;DHT22;10127;47.780;9.606;2022-11-25T01:41:16;3.90;99.90
19930;DHT22;10127;47.780;9.606;2022-11-25T01:43:42;3.90;99.90
19930;DHT22;10127;47.780;9.606;2022-11-25T01:46:25;3.90;99.90
19930;DHT22;10127;47.780;9.606;2022-11-25T01:48:56;3.80;99.90
19930;DHT22;10127;47.780;9.606;2022-11-25T01:51:27;3.80;99.90
19930;DHT22;10127;47.780;9.606;2022-11-25T01:53:56;3.70;99.90
19930;DHT22;10127;47.780;9.606;2022-11-25T01:56:24;3.70;99.90
19930;DHT22;10127;47.780;9.606;2022-11-25T01:58:50;3.90;99.90
19930;DHT22;10127;47.780;9.606;2022-11-25T02:01:16;3.90;99.90
19930;DHT22;10127;47.780;9.606;2022-11-25T02:03:45;3.80;99.90
19930;DHT22;10127;47.780;9.606;2022-11-25T02:06:17;3.80;99.90
19930;DHT22;10127;47.780;9.606;2022-11-25T02:08:52;3.80;99.90
19930;DHT22;10127;47.780;9.606;2022-11-25T02:11:19;3.90;99.90
19930;DHT22;10127;47.780;9.606;2022-11-25T02:13:47;3.90;99.90
19930;DHT22;10127;47.780;9.606;2022-11-25T02:16:13;3.90;99.90
19930;DHT22;10127;47.780;9.606;2022-11-25T02:18:39;4.00;99.90
19930;DHT22;10127;47.780;9.606;2022-11-25T02:21:05;4.00;99.90
19930;DHT22;10127;47.780;9.606;2022-11-25T02:23:51;3.90;99.90
19930;DHT22;10127;47.780;9.606;2022-11-25T02:26:21;3.80;99.90
19930;DHT22;10127;47.780;9.606;2022-11-25T02:28:47;3.90;99.90
19930;DHT22;10127;47.780;9.606;2022-11-25T02:31:21;4.00;99.90
19930;DHT22;10127;47.780;9.606;2022-11-25T02:33:47;3.90;99.90
19930;DHT22;10127;47.780;9.606;2022-11-25T02:36:15;4.00;99.90
19930;DHT22;10127;47.780;9.606;2022-11-25T02:38:45;4.10;99.90
19930;DHT22;10127;47.780;9.606;2022-11-25T02:41:16;4.10;99.90
19930;DHT22;10127;47.780;9.606;2022-11-25T02:43:43;4.20;99.90
19930;DHT22;10127;47.780;9.606;2022-11-25T02:46:11;4.20;99.90
19930;DHT22;10127;47.780;9.606;2022-11-25T02:48:38;4.20;99.90
19930;DHT22;10127;47.780;9.606;2022-11-25T03:11:42;4.20;99.90
19930;DHT22;10127;47.780;9.606;2022-11-25T03:14:26;4.10;99.90
19930;DHT22;10127;47.780;9.606;2022-11-25T03:16:52;4.10;99.90
19930;DHT22;10127;47.780;9.606;2022-11-25T03:19:17;4.10;99.90
19930;DHT22;10127;47.780;9.606;2022-11-25T03:21:45;4.20;99.90
19930;DHT22;10127;47.780;9.606;2022-11-25T03:24:10;4.30;99.90
19930;DHT22;10127;47.780;9.606;2022-11-25T03:26:36;4.30;99.90
19930;DHT22;10127;47.780;9.606;2022-11-25T03:29:02;4.40;99.90
19930;DHT22;10127;47.780;9.606;2022-11-25T03:31:27;4.30;99.90
19930;DHT22;10127;47.780;9.606;2022-11-25T03:33:54;4.30;99.90
19930;DHT22;10127;47.780;9.606;2022-11-25T03:36:20;4.20;99.90
19930;DHT22;10127;47.780;9.606;2022-11-25T03:38:45;4.30;99.90
19930;DHT22;10127;47.780;9.606;2022-11-25T03:41:11;4.40;99.90
19930;DHT22;10127;47.780;9.606;2022-11-25T03:43:36;4.30;99.90
19930;DHT22;10127;47.780;9.606;2022-11-25T03:46:02;4.40;99.90
19930;DHT22;10127;47.780;9.606;2022-11-25T03:48:27;4.40;99.90
19930;DHT22;10127;47.780;9.606;2022-11-25T03:50:53;4.50;99.90
19930;DHT22;10127;47.780;9.606;2022-11-25T03:53:19;4.40;99.90
19930;DHT22;10127;47.780;9.606;2022-11-25T03:55:46;4.50;99.90
19930;DHT22;10127;47.780;9.606;2022-11-25T03:58:12;4.40;99.90
19930;DHT22;10127;47.780;9.606;2022-11-25T04:00:38;4.30;99.90
19930;DHT22;10127;47.780;9.606;2022-11-25T04:03:04;4.10;99.90
19930;DHT22;10127;47.780;9.606;2022-11-25T04:05:29;4.00;99.90
19930;DHT22;10127;47.780;9.606;2022-11-25T04:07:55;4.00;99.90
19930;DHT22;10127;47.780;9.606;2022-11-25T04:10:20;4.10;99.90
19930;DHT22;10127;47.780;9.606;2022-11-25T04:12:46;4.20;99.90
19930;DHT22;10127;47.780;9.606;2022-11-25T04:15:13;4.20;99.90
19930;DHT22;10127;47.780;9.606;2022-11-25T04:17:39;4.20;99.90
19930;DHT22;10127;47.780;9.606;2022-11-25T04:20:05;4.10;99.90
19930;DHT22;10127;47.780;9.606;2022-11-25T04:22:31;4.10;99.90
19930;DHT22;10127;47.780;9.606;2022-11-25T04:24:56;4.10;99.90
19930;DHT22;10127;47.780;9.606;2022-11-25T04:27:22;3.90;99.90
19930;DHT22;10127;47.780;9.606;2022-11-25T04:29:48;3.80;99.90
19930;DHT22;10127;47.780;9.606;2022-11-25T04:32:13;3.80;99.90
19930;DHT22;10127;47.780;9.606;2022-11-25T04:34:39;3.80;99.90
19930;DHT22;10127;47.780;9.606;2022-11-25T04:37:04;3.70;99.90
19930;DHT22;10127;47.780;9.606;2022-11-25T04:39:30;3.80;99.90
19930;DHT22;10127;47.780;9.606;2022-11-25T04:41:55;3.90;99.90
19930;DHT22;10127;47.780;9.606;2022-11-25T04:44:41;4.00;99.90
19930;DHT22;10127;47.780;9.606;2022-11-25T04:47:07;4.00;99.90
19930;DHT22;10127;47.780;9.606;2022-11-25T04:49:32;4.00;99.90
19930;DHT22;10127;47.780;9.606;2022-11-25T04:51:58;3.90;99.90
19930;DHT22;10127;47.780;9.606;2022-11-25T04:54:23;3.70;99.90
19930;DHT22;10127;47.780;9.606;2022-11-25T04:56:49;3.60;99.90
19930;DHT22;10127;47.780;9.606;2022-11-25T04:59:15;3.50;99.90
19930;DHT22;10127;47.780;9.606;2022-11-25T05:01:59;3.60;99.90
19930;DHT22;10127;47.780;9.606;2022-11-25T05:04:24;3.70;99.90
19930;DHT22;10127;47.780;9.606;2022-11-25T05:06:50;3.80;99.90
19930;DHT22;10127;47.780;9.606;2022-11-25T05:09:16;4.00;99.90
19930;DHT22;10127;47.780;9.606;2022-11-25T05:11:42;4.00;99.90
19930;DHT22;10127;47.780;9.606;2022-11-25T05:14:07;4.10;99.90
19930;DHT22;10127;47.780;9.606;2022-11-25T05:16:33;4.30;99.90
19930;DHT22;10127;47.780;9.606;2022-11-25T05:19:00;4.30;99.90
19930;DHT22;10127;47.780;9.606;2022-11-25T05:21:26;4.30;99.90
19930;DHT22;10127;47.780;9.606;2022-11-25T05:23:53;4.20;99.90
19930;DHT22;10127;47.780;9.606;2022-11-25T05:26:18;4.20;99.90
19930;DHT22;10127;47.780;9.606;2022-11-25T05:28:44;4.20;99.90
19930;DHT22;10127;47.780;9.606;2022-11-25T05:31:10;4.20;99.90
19930;DHT22;10127;47.780;9.606;2022-11-25T05:33:36;4.30;99.90
19930;DHT22;10127;47.780;9.606;2022-11-25T05:36:03;4.30;99.90
19930;DHT22;10127;47.780;9.606;2022-11-25T05:38:29;4.10;99.90
19930;DHT22;10127;47.780;9.606;2022-11-25T05:41:03;4.20;99.90
19930;DHT22;10127;47.780;9.606;2022-11-25T05:43:29;4.30;99.90
19930;DHT22;10127;47.780;9.606;2022-11-25T05:45:55;4.30;99.90
19930;DHT22;10127;47.780;9.606;2022-11-25T05:48:21;4.30;99.90
19930;DHT22;10127;47.780;9.606;2022-11-25T05:50:47;4.30;99.90
19930;DHT22;10127;47.780;9.606;2022-11-25T05:53:12;4.30;99.90
19930;DHT22;10127;47.780;9.606;2022-11-25T05:55:38;4.30;99.90
19930;DHT22;10127;47.780;9.606;2022-11-25T05:58:04;4.40;99.90
19930;DHT22;10127;47.780;9.606;2022-11-25T06:00:30;4.30;99.90
19930;DHT22;10127;47.780;9.606;2022-11-25T06:02:56;4.50;99.90
19930;DHT22;10127;47.780;9.606;2022-11-25T06:05:22;4.50;99.90
19930;DHT22;10127;47.780;9.606;2022-11-25T06:07:48;4.50;99.90
19930;DHT22;10127;47.780;9.606;2022-11-25T06:10:15;4.60;99.90
19930;DHT22;10127;47.780;9.606;2022-11-25T06:12:40;4.50;99.90
19930;DHT22;10127;47.780;9.606;2022-11-25T06:15:06;4.60;99.90
19930;DHT22;10127;47.780;9.606;2022-11-25T06:17:32;4.50;99.90
19930;DHT22;10127;47.780;9.606;2022-11-25T06:19:58;4.60;99.90
19930;DHT22;10127;47.780;9.606;2022-11-25T06:22:23;4.60;99.90
19930;DHT22;10127;47.780;9.606;2022-11-25T06:24:49;4.60;99.90
19930;DHT22;10127;47.780;9.606;2022-11-25T06:27:14;4.60;99.90
19930;DHT22;10127;47.780;9.606;2022-11-25T06:29:40;4.60;99.90
19930;DHT22;10127;47.780;9.606;2022-11-25T06:32:06;4.70;99.90
19930;DHT22;10127;47.780;9.606;2022-11-25T06:34:31;4.60;99.90
19930;DHT22;10127;47.780;9.606;2022-11-25T06:36:57;4.70;99.90
19930;DHT22;10127;47.780;9.606;2022-11-25T06:39:22;4.60;99.90
19930;DHT22;10127;47.780;9.606;2022-11-25T06:41:48;4.60;99.90
19930;DHT22;10127;47.780;9.606;2022-11-25T06:44:13;4.50;99.90
19930;DHT22;10127;47.780;9.606;2022-11-25T06:46:39;4.40;99.90
19930;DHT22;10127;47.780;9.606;2022-11-25T06:49:05;4.40;99.90
19930;DHT22;10127;47.780;9.606;2022-11-25T06:51:31;4.50;99.90
19930;DHT22;10127;47.780;9.606;2022-11-25T06:53:57;4.50;99.90
19930;DHT22;10127;47.780;9.606;2022-11-25T06:56:25;4.40;99.90
19930;DHT22;10127;47.780;9.606;2022-11-25T06:58:53;4.40;99.90
19930;DHT22;10127;47.780;9.606;2022-11-25T07:01:26;4.40;99.90
19930;DHT22;10127;47.780;9.606;2022-11-25T07:03:58;4.60;99.90
19930;DHT22;10127;47.780;9.606;2022-11-25T07:06:25;4.60;99.90
19930;DHT22;10127;47.780;9.606;2022-11-25T07:08:51;4.60;99.90
19930;DHT22;10127;47.780;9.606;2022-11-25T07:13:49;4.50;99.90
19930;DHT22;10127;47.780;9.606;2022-11-25T07:16:15;4.60;99.90
19930;DHT22;10127;47.780;9.606;2022-11-25T07:18:41;4.80;99.90
19930;DHT22;10127;47.780;9.606;2022-11-25T07:21:10;4.90;99.90
19930;DHT22;10127;47.780;9.606;2022-11-25T07:23:36;4.80;99.90
19930;DHT22;10127;47.780;9.606;2022-11-25T07:26:06;4.70;99.90
19930;DHT22;10127;47.780;9.606;2022-11-25T07:28:33;4.60;99.90
19930;DHT22;10127;47.780;9.606;2022-11-25T07:31:18;4.70;99.90
19930;DHT22;10127;47.780;9.606;2022-11-25T07:33:46;4.80;99.90
19930;DHT22;10127;47.780;9.606;2022-11-25T07:36:12;4.90;99.90
19930;DHT22;10127;47.780;9.606;2022-11-25T07:38:39;5.00;99.90
19930;DHT22;10127;47.780;9.606;2022-11-25T07:41:20;5.00;99.90
19930;DHT22;10127;47.780;9.606;2022-11-25T07:43:51;5.20;99.90
19930;DHT22;10127;47.780;9.606;2022-11-25T07:46:31;5.30;99.90
19930;DHT22;10127;47.780;9.606;2022-11-25T07:48:59;5.40;99.90
19930;DHT22;10127;47.780;9.606;2022-11-25T07:51:28;5.30;99.90
19930;DHT22;10127;47.780;9.606;2022-11-25T07:53:56;5.40;99.90
19930;DHT22;10127;47.780;9.606;2022-11-25T07:56:22;5.40;99.90
19930;DHT22;10127;47.780;9.606;2022-11-25T07:58:47;5.40;99.90
19930;DHT22;10127;47.780;9.606;2022-11-25T08:01:14;5.40;99.90
19930;DHT22;10127;47.780;9.606;2022-11-25T08:03:41;5.10;99.90
19930;DHT22;10127;47.780;9.606;2022-11-25T08:06:10;5.20;99.90
19930;DHT22;10127;47.780;9.606;2022-11-25T08:08:37;5.10;99.90
19930;DHT22;10127;47.780;9.606;2022-11-25T08:11:11;5.10;99.90
19930;DHT22;10127;47.780;9.606;2022-11-25T08:13:38;5.10;99.90
19930;DHT22;10127;47.780;9.606;2022-11-25T08:16:04;5.30;99.90
19930;DHT22;10127;47.780;9.606;2022-11-25T08:18:30;5.30;99.90
19930;DHT22;10127;47.780;9.606;2022-11-25T08:21:00;5.30;99.90
19930;DHT22;10127;47.780;9.606;2022-11-25T08:23:26;5.30;99.90
19930;DHT22;10127;47.780;9.606;2022-11-25T08:25:52;5.50;99.90
19930;DHT22;10127;47.780;9.606;2022-11-25T08:28:18;5.70;99.90
19930;DHT22;10127;47.780;9.606;2022-11-25T08:30:43;6.00;99.90
19930;DHT22;10127;47.780;9.606;2022-11-25T08:33:09;6.00;99.90
19930;DHT22;10127;47.780;9.606;2022-11-25T08:35:35;6.20;99.90
19930;DHT22;10127;47.780;9.606;2022-11-25T08:38:07;6.10;99.90
19930;DHT22;10127;47.780;9.606;2022-11-25T08:40:34;6.20;99.90
19930;DHT22;10127;47.780;9.606;2022-11-25T08:43:00;6.20;99.90
19930;DHT22;10127;47.780;9.606;2022-11-25T08:45:26;6.40;99.90
19930;DHT22;10127;47.780;9.606;2022-11-25T08:47:52;6.50;99.90
19930;DHT22;10127;47.780;9.606;2022-11-25T08:50:18;6.60;99.90
19930;DHT22;10127;47.780;9.606;2022-11-25T08:52:44;6.30;99.90
19930;DHT22;10127;47.780;9.606;2022-11-25T08:55:09;6.40;99.90
19930;DHT22;10127;47.780;9.606;2022-11-25T08:57:35;6.40;99.90
19930;DHT22;10127;47.780;9.606;2022-11-25T09:00:01;6.50;99.90
19930;DHT22;10127;47.780;9.606;2022-11-25T09:02:27;6.60;99.90
19930;DHT22;10127;47.780;9.606;2022-11-25T09:04:53;6.60;99.90
19930;DHT22;10127;47.780;9.606;2022-11-25T09:07:19;6.70;99.90
19930;DHT22;10127;47.780;9.606;2022-11-25T09:09:44;6.70;99.90
19930;DHT22;10127;47.780;9.606;2022-11-25T09:12:10;6.80;99.90
19930;DHT22;10127;47.780;9.606;2022-11-25T09:14:36;6.70;99.90
19930;DHT22;10127;47.780;9.606;2022-11-25T09:17:01;6.70;99.90
19930;DHT22;10127;47.780;9.606;2022-11-25T09:19:32;6.60;99.90
19930;DHT22;10127;47.780;9.606;2022-11-25T09:21:57;6.70;99.90
19930;DHT22;10127;47.780;9.606;2022-11-25T09:24:23;6.70;99.90
19930;DHT22;10127;47.780;9.606;2022-11-25T09:26:48;6.90;99.90
19930;DHT22;10127;47.780;9.606;2022-11-25T09:29:14;6.90;99.90
19930;DHT22;10127;47.780;9.606;2022-11-25T09:31:40;6.90;99.90
19930;DHT22;10127;47.780;9.606;2022-11-25T09:34:05;6.90;99.90
19930;DHT22;10127;47.780;9.606;2022-11-25T09:36:32;7.00;99.90
19930;DHT22;10127;47.780;9.606;2022-11-25T09:38:58;6.90;99.90
19930;DHT22;10127;47.780;9.606;2022-11-25T09:41:57;6.90;99.90
19930;DHT22;10127;47.780;9.606;2022-11-25T09:55:32;7.20;99.90
19930;DHT22;10127;47.780;9.606;2022-11-25T10:00:40;7.30;99.90
19930;DHT22;10127;47.780;9.606;2022-11-25T10:06:00;7.50;99.90
19930;DHT22;10127;47.780;9.606;2022-11-25T10:08:31;7.70;99.90
19930;DHT22;10127;47.780;9.606;2022-11-25T10:11:09;7.80;99.90
19930;DHT22;10127;47.780;9.606;2022-11-25T10:17:00;7.90;99.90
19930;DHT22;10127;47.780;9.606;2022-11-25T10:22:42;8.10;99.90
19930;DHT22;10127;47.780;9.606;2022-11-25T10:25:27;8.10;99.90
19930;DHT22;10127;47.780;9.606;2022-11-25T10:27:59;8.20;99.90
19930;DHT22;10127;47.780;9.606;2022-11-25T10:33:21;8.60;99.90
19930;DHT22;10127;47.780;9.606;2022-11-25T10:41:02;9.30;99.90
19930;DHT22;10127;47.780;9.606;2022-11-25T10:43:33;9.40;99.90
19930;DHT22;10127;47.780;9.606;2022-11-25T10:46:21;9.30;99.90
19930;DHT22;10127;47.780;9.606;2022-11-25T10:49:19;9.30;99.90
19930;DHT22;10127;47.780;9.606;2022-11-25T10:51:51;9.30;99.90
19930;DHT22;10127;47.780;9.606;2022-11-25T10:54:22;9.50;99.90
19930;DHT22;10127;47.780;9.606;2022-11-25T10:57:02;9.50;99.90
19930;DHT22;10127;47.780;9.606;2022-11-25T10:59:33;9.50;99.90
19930;DHT22;10127;47.780;9.606;2022-11-25T11:02:22;9.40;99.90
19930;DHT22;10127;47.780;9.606;2022-11-25T11:07:40;9.20;99.90
19930;DHT22;10127;47.780;9.606;2022-11-25T11:10:26;9.10;99.90
19930;DHT22;10127;47.780;9.606;2022-11-25T11:12:56;9.20;99.90
19930;DHT22;10127;47.780;9.606;2022-11-25T11:17:53;9.30;99.90
19930;DHT22;10127;47.780;9.606;2022-11-25T11:20:24;9.20;99.90
19930;DHT22;10127;47.780;9.606;2022-11-25T11:23:01;9.30;99.90
19930;DHT22;10127;47.780;9.606;2022-11-25T11:25:33;9.40;99.90
19930;DHT22;10127;47.780;9.606;2022-11-25T11:28:00;9.60;99.90
19930;DHT22;10127;47.780;9.606;2022-11-25T11:30:31;9.50;99.90
19930;DHT22;10127;47.780;9.606;2022-11-25T11:33:27;9.40;99.90
19930;DHT22;10127;47.780;9.606;2022-11-25T11:35:54;9.50;99.90
19930;DHT22;10127;47.780;9.606;2022-11-25T11:38:31;9.70;99.90
19930;DHT22;10127;47.780;9.606;2022-11-25T11:49:31;9.60;99.90
19930;DHT22;10127;47.780;9.606;2022-11-25T11:54:43;9.70;99.90
19930;DHT22;10127;47.780;9.606;2022-11-25T11:57:38;9.80;99.90
19930;DHT22;10127;47.780;9.606;2022-11-25T12:00:11;9.90;99.90
19930;DHT22;10127;47.780;9.606;2022-11-25T12:05:12;10.00;99.90
19930;DHT22;10127;47.780;9.606;2022-11-25T12:08:19;10.20;99.90
19930;DHT22;10127;47.780;9.606;2022-11-25T12:13:57;10.60;99.90
19930;DHT22;10127;47.780;9.606;2022-11-25T12:16:46;10.90;99.90
19930;DHT22;10127;47.780;9.606;2022-11-25T12:19:24;11.10;99.90
19930;DHT22;10127;47.780;9.606;2022-11-25T12:25:24;11.50;99.90
19930;DHT22;10127;47.780;9.606;2022-11-25T12:28:02;11.60;99.90
19930;DHT22;10127;47.780;9.606;2022-11-25T12:36:30;11.80;99.90
19930;DHT22;10127;47.780;9.606;2022-11-25T12:39:27;11.80;99.90
19930;DHT22;10127;47.780;9.606;2022-11-25T12:42:00;11.80;99.90
19930;DHT22;10127;47.780;9.606;2022-11-25T12:47:24;11.30;99.90
19930;DHT22;10127;47.780;9.606;2022-11-25T12:49:52;11.10;99.90
19930;DHT22;10127;47.780;9.606;2022-11-25T12:55:22;10.80;99.90
19930;DHT22;10127;47.780;9.606;2022-11-25T13:17:17;10.60;99.90
19930;DHT22;10127;47.780;9.606;2022-11-25T13:19:43;10.50;99.90
19930;DHT22;10127;47.780;9.606;2022-11-25T13:22:28;10.50;99.90
19930;DHT22;10127;47.780;9.606;2022-11-25T13:24:56;10.50;99.90
19930;DHT22;10127;47.780;9.606;2022-11-25T13:30:01;10.90;99.90
19930;DHT22;10127;47.780;9.606;2022-11-25T13:32:36;10.80;99.90
19930;DHT22;10127;47.780;9.606;2022-11-25T13:35:33;10.70;99.90
19930;DHT22;10127;47.780;9.606;2022-11-25T13:38:00;10.50;99.90
19930;DHT22;10127;47.780;9.606;2022-11-25T13:42:51;10.30;99.90
19930;DHT22;10127;47.780;9.606;2022-11-25T13:45:30;10.30;99.90
19930;DHT22;10127;47.780;9.606;2022-11-25T13:48:25;10.30;99.90
19930;DHT22;10127;47.780;9.606;2022-11-25T13:50:50;10.30;99.90
19930;DHT22;10127;47.780;9.606;2022-11-25T13:55:45;10.30;99.90
19930;DHT22;10127;47.780;9.606;2022-11-25T14:01:01;10.30;99.90
19930;DHT22;10127;47.780;9.606;2022-11-25T14:09:03;10.20;99.90
19930;DHT22;10127;47.780;9.606;2022-11-25T14:14:43;10.10;99.90
19930;DHT22;10127;47.780;9.606;2022-11-25T14:17:55;10.10;99.90
19930;DHT22;10127;47.780;9.606;2022-11-25T14:20:47;10.10;99.90
19930;DHT22;10127;47.780;9.606;2022-11-25T14:25:55;10.00;99.90
19930;DHT22;10127;47.780;9.606;2022-11-25T14:28:42;10.00;99.90
19930;DHT22;10127;47.780;9.606;2022-11-25T14:31:20;10.00;99.90
19930;DHT22;10127;47.780;9.606;2022-11-25T14:33:54;10.00;99.90
19930;DHT22;10127;47.780;9.606;2022-11-25T14:36:32;10.00;99.90
19930;DHT22;10127;47.780;9.606;2022-11-25T14:39:04;9.90;99.90
19930;DHT22;10127;47.780;9.606;2022-11-25T14:41:57;9.90;99.90
19930;DHT22;10127;47.780;9.606;2022-11-25T14:44:49;9.80;99.90
19930;DHT22;10127;47.780;9.606;2022-11-25T14:47:20;9.80;99.90
19930;DHT22;10127;47.780;9.606;2022-11-25T14:49:54;9.70;99.90
19930;DHT22;10127;47.780;9.606;2022-11-25T14:54:53;9.70;99.90
19930;DHT22;10127;47.780;9.606;2022-11-25T14:57:33;9.70;99.90
19930;DHT22;10127;47.780;9.606;2022-11-25T15:00:11;9.60;99.90
19930;DHT22;10127;47.780;9.606;2022-11-25T15:02:51;9.60;99.90
19930;DHT22;10127;47.780;9.606;2022-11-25T15:05:20;9.60;99.90
19930;DHT22;10127;47.780;9.606;2022-11-25T15:08:00;9.50;99.90
19930;DHT22;10127;47.780;9.606;2022-11-25T15:10:41;9.60;99.90
19930;DHT22;10127;47.780;9.606;2022-11-25T15:16:04;9.40;99.90
19930;DHT22;10127;47.780;9.606;2022-11-25T15:18:31;9.40;99.90
19930;DHT22;10127;47.780;9.606;2022-11-25T15:20:59;9.50;99.90
19930;DHT22;10127;47.780;9.606;2022-11-25T15:23:31;9.40;99.90
19930;DHT22;10127;47.780;9.606;2022-11-25T15:26:01;9.40;99.90
19930;DHT22;10127;47.780;9.606;2022-11-25T15:28:37;9.30;99.90
19930;DHT22;10127;47.780;9.606;2022-11-25T15:31:09;9.40;99.90
19930;DHT22;10127;47.780;9.606;2022-11-25T15:33:35;9.40;99.90
19930;DHT22;10127;47.780;9.606;2022-11-25T15:36:02;9.40;99.90
19930;DHT22;10127;47.780;9.606;2022-11-25T15:38:38;9.40;99.90
19930;DHT22;10127;47.780;9.606;2022-11-25T15:41:31;9.30;99.90
19930;DHT22;10127;47.780;9.606;2022-11-25T15:43:59;9.20;99.90
19930;DHT22;10127;47.780;9.606;2022-11-25T15:46:26;9.20;99.90
19930;DHT22;10127;47.780;9.606;2022-11-25T15:48:56;9.10;99.90
19930;DHT22;10127;47.780;9.606;2022-11-25T15:54:37;9.10;99.90
19930;DHT22;10127;47.780;9.606;2022-11-25T15:56:55;9.20;99.90
19930;DHT22;10127;47.780;9.606;2022-11-25T16:00:02;9.20;99.90
19930;DHT22;10127;47.780;9.606;2022-11-25T16:02:36;9.10;99.90
19930;DHT22;10127;47.780;9.606;2022-11-25T16:07:39;9.10;99.90
19930;DHT22;10127;47.780;9.606;2022-11-25T16:15:59;9.00;99.90
19930;DHT22;10127;47.780;9.606;2022-11-25T16:20:58;9.20;99.90
19930;DHT22;10127;47.780;9.606;2022-11-25T16:23:26;9.20;99.90
19930;DHT22;10127;47.780;9.606;2022-11-25T16:26:00;9.20;99.90
19930;DHT22;10127;47.780;9.606;2022-11-25T16:28:27;9.20;99.90
19930;DHT22;10127;47.780;9.606;2022-11-25T16:30:53;9.20;99.90
19930;DHT22;10127;47.780;9.606;2022-11-25T16:33:23;9.20;99.90
19930;DHT22;10127;47.780;9.606;2022-11-25T16:35:49;9.20;99.90
19930;DHT22;10127;47.780;9.606;2022-11-25T16:38:14;9.20;99.90
19930;DHT22;10127;47.780;9.606;2022-11-25T16:40:40;9.20;99.90
19930;DHT22;10127;47.780;9.606;2022-11-25T16:43:16;9.20;99.90
19930;DHT22;10127;47.780;9.606;2022-11-25T16:45:48;9.20;99.90
19930;DHT22;10127;47.780;9.606;2022-11-25T16:48:15;9.10;99.90
19930;DHT22;10127;47.780;9.606;2022-11-25T16:50:42;9.10;99.90
19930;DHT22;10127;47.780;9.606;2022-11-25T16:53:08;9.10;99.90
19930;DHT22;10127;47.780;9.606;2022-11-25T16:55:34;9.10;99.90
19930;DHT22;10127;47.780;9.606;2022-11-25T16:58:01;9.10;99.90
19930;DHT22;10127;47.780;9.606;2022-11-25T17:00:26;9.10;99.90
19930;DHT22;10127;47.780;9.606;2022-11-25T17:02:52;9.10;99.90
19930;DHT22;10127;47.780;9.606;2022-11-25T17:05:21;9.10;99.90
19930;DHT22;10127;47.780;9.606;2022-11-25T17:07:47;9.20;99.90
19930;DHT22;10127;47.780;9.606;2022-11-25T17:10:15;9.20;99.90
19930;DHT22;10127;47.780;9.606;2022-11-25T17:12:42;9.30;99.90
19930;DHT22;10127;47.780;9.606;2022-11-25T17:15:15;9.20;99.90
19930;DHT22;10127;47.780;9.606;2022-11-25T17:17:43;9.10;99.90
19930;DHT22;10127;47.780;9.606;2022-11-25T17:20:17;9.00;99.90
19930;DHT22;10127;47.780;9.606;2022-11-25T17:22:43;8.80;99.90
19930;DHT22;10127;47.780;9.606;2022-11-25T17:25:10;8.70;99.90
19930;DHT22;10127;47.780;9.606;2022-11-25T17:27:37;8.60;99.90
19930;DHT22;10127;47.780;9.606;2022-11-25T17:30:05;8.60;99.90
19930;DHT22;10127;47.780;9.606;2022-11-25T17:32:31;8.50;99.90
19930;DHT22;10127;47.780;9.606;2022-11-25T17:34:58;8.50;99.90
19930;DHT22;10127;47.780;9.606;2022-11-25T17:37:24;8.40;99.90
19930;DHT22;10127;47.780;9.606;2022-11-25T17:39:53;8.40;99.90
19930;DHT22;10127;47.780;9.606;2022-11-25T17:42:31;8.40;99.90
19930;DHT22;10127;47.780;9.606;2022-11-25T17:44:57;8.30;99.90
19930;DHT22;10127;47.780;9.606;2022-11-25T17:47:24;8.30;99.90
19930;DHT22;10127;47.780;9.606;2022-11-25T17:49:49;8.40;99.90
19930;DHT22;10127;47.780;9.606;2022-11-25T17:52:16;8.30;99.90
19930;DHT22;10127;47.780;9.606;2022-11-25T17:54:41;8.30;99.90
19930;DHT22;10127;47.780;9.606;2022-11-25T17:57:12;8.40;99.90
19930;DHT22;10127;47.780;9.606;2022-11-25T17:59:39;8.40;99.90
19930;DHT22;10127;47.780;9.606;2022-11-25T18:02:17;8.40;99.90
19930;DHT22;10127;47.780;9.606;2022-11-25T18:04:42;8.30;99.90
19930;DHT22;10127;47.780;9.606;2022-11-25T18:07:09;8.30;99.90
19930;DHT22;10127;47.780;9.606;2022-11-25T18:09:34;8.30;99.90
19930;DHT22;10127;47.780;9.606;2022-11-25T18:12:03;8.30;99.90
19930;DHT22;10127;47.780;9.606;2022-11-25T18:14:33;8.20;99.90
19930;DHT22;10127;47.780;9.606;2022-11-25T18:17:02;8.10;99.90
19930;DHT22;10127;47.780;9.606;2022-11-25T18:19:29;8.20;99.90
19930;DHT22;10127;47.780;9.606;2022-11-25T18:22:15;8.20;99.90
19930;DHT22;10127;47.780;9.606;2022-11-25T18:24:42;8.10;99.90
19930;DHT22;10127;47.780;9.606;2022-11-25T18:27:21;8.10;99.90
19930;DHT22;10127;47.780;9.606;2022-11-25T18:29:48;8.10;99.90
19930;DHT22;10127;47.780;9.606;2022-11-25T18:32:13;8.10;99.90
19930;DHT22;10127;47.780;9.606;2022-11-25T18:34:39;7.90;99.90